sensor_id;sensor_type;location;lat;lon;timestamp;P1;durP1;ratioP1;P2;durP2;ratioP2
20743;SDS011;56303;52.160;-0.428;2022-10-16T00:01:13;10.33;;;3.03;;
20743;SDS011;56303;52.160;-0.428;2022-10-16T00:03:42;13.90;;;3.80;;
20743;SDS011;56303;52.160;-0.428;2022-10-16T00:06:11;13.23;;;4.30;;
20743;SDS011;56303;52.160;-0.428;2022-10-16T00:08:38;8.77;;;2.57;;
20743;SDS011;56303;52.160;-0.428;2022-10-16T00:11:08;8.43;;;2.77;;
20743;SDS011;56303;52.160;-0.428;2022-10-16T00:13:40;11.50;;;3.07;;
20743;SDS011;56303;52.160;-0.428;2022-10-16T00:16:08;9.43;;;2.83;;
20743;SDS011;56303;52.160;-0.428;2022-10-16T00:18:36;9.53;;;3.20;;
20743;SDS011;56303;52.160;-0.428;2022-10-16T00:21:04;11.00;;;3.03;;
20743;SDS011;56303;52.160;-0.428;2022-10-16T00:23:36;15.43;;;3.50;;
20743;SDS011;56303;52.160;-0.428;2022-10-16T00:26:04;14.00;;;3.53;;
20743;SDS011;56303;52.160;-0.428;2022-10-16T00:28:33;8.37;;;3.20;;
20743;SDS011;56303;52.160;-0.428;2022-10-16T00:31:04;8.53;;;3.37;;
20743;SDS011;56303;52.160;-0.428;2022-10-16T00:33:34;9.40;;;2.27;;
20743;SDS011;56303;52.160;-0.428;2022-10-16T00:36:02;11.57;;;3.93;;
20743;SDS011;56303;52.160;-0.428;2022-10-16T00:38:30;10.57;;;3.10;;
20743;SDS011;56303;52.160;-0.428;2022-10-16T00:40:57;11.40;;;2.83;;
20743;SDS011;56303;52.160;-0.428;2022-10-16T00:43:41;10.40;;;3.37;;
20743;SDS011;56303;52.160;-0.428;2022-10-16T00:46:17;8.10;;;2.40;;
20743;SDS011;56303;52.160;-0.428;2022-10-16T00:48:49;13.27;;;4.90;;
20743;SDS011;56303;52.160;-0.428;2022-10-16T00:51:23;9.23;;;2.57;;
20743;SDS011;56303;52.160;-0.428;2022-10-16T00:53:55;11.73;;;3.20;;
20743;SDS011;56303;52.160;-0.428;2022-10-16T00:56:22;11.20;;;3.40;;
20743;SDS011;56303;52.160;-0.428;2022-10-16T00:58:49;9.10;;;2.83;;
20743;SDS011;56303;52.160;-0.428;2022-10-16T01:01:16;11.73;;;3.30;;
20743;SDS011;56303;52.160;-0.428;2022-10-16T01:03:43;13.10;;;3.43;;
20743;SDS011;56303;52.160;-0.428;2022-10-16T01:14:15;10.97;;;2.20;;
20743;SDS011;56303;52.160;-0.428;2022-10-16T01:17:16;9.53;;;3.30;;
20743;SDS011;56303;52.160;-0.428;2022-10-16T01:25:55;14.83;;;3.57;;
20743;SDS011;56303;52.160;-0.428;2022-10-16T01:28:30;11.03;;;2.63;;
20743;SDS011;56303;52.160;-0.428;2022-10-16T01:31:18;8.47;;;2.40;;
20743;SDS011;56303;52.160;-0.428;2022-10-16T01:34:13;13.40;;;3.27;;
20743;SDS011;56303;52.160;-0.428;2022-10-16T01:36:41;10.67;;;2.90;;
20743;SDS011;56303;52.160;-0.428;2022-10-16T01:39:14;11.13;;;3.00;;
20743;SDS011;56303;52.160;-0.428;2022-10-16T01:41:46;12.67;;;3.70;;
20743;SDS011;56303;52.160;-0.428;2022-10-16T01:44:31;11.87;;;3.87;;
20743;SDS011;56303;52.160;-0.428;2022-10-16T01:47:00;10.00;;;2.97;;
20743;SDS011;56303;52.160;-0.428;2022-10-16T01:49:29;9.77;;;3.47;;
20743;SDS011;56303;52.160;-0.428;2022-10-16T01:52:00;10.90;;;3.30;;
20743;SDS011;56303;52.160;-0.428;2022-10-16T01:54:32;9.50;;;3.37;;
20743;SDS011;56303;52.160;-0.428;2022-10-16T01:57:03;10.93;;;3.03;;
20743;SDS011;56303;52.160;-0.428;2022-10-16T01:59:32;14.17;;;3.97;;
20743;SDS011;56303;52.160;-0.428;2022-10-16T02:02:04;12.83;;;3.90;;
20743;SDS011;56303;52.160;-0.428;2022-10-16T02:04:36;12.10;;;3.37;;
20743;SDS011;56303;52.160;-0.428;2022-10-16T02:07:06;15.90;;;3.67;;
20743;SDS011;56303;52.160;-0.428;2022-10-16T02:09:35;16.27;;;3.73;;
20743;SDS011;56303;52.160;-0.428;2022-10-16T02:12:08;14.20;;;3.50;;
20743;SDS011;56303;52.160;-0.428;2022-10-16T02:14:40;10.50;;;3.43;;
20743;SDS011;56303;52.160;-0.428;2022-10-16T02:17:11;11.93;;;3.93;;
20743;SDS011;56303;52.160;-0.428;2022-10-16T02:19:43;10.63;;;3.17;;
20743;SDS011;56303;52.160;-0.428;2022-10-16T02:22:16;14.07;;;3.77;;
20743;SDS011;56303;52.160;-0.428;2022-10-16T02:29:53;10.17;;;2.93;;
20743;SDS011;56303;52.160;-0.428;2022-10-16T02:32:27;13.13;;;4.00;;
20743;SDS011;56303;52.160;-0.428;2022-10-16T02:34:57;11.87;;;3.40;;
20743;SDS011;56303;52.160;-0.428;2022-10-16T02:37:26;13.47;;;3.53;;
20743;SDS011;56303;52.160;-0.428;2022-10-16T02:39:54;12.00;;;3.30;;
20743;SDS011;56303;52.160;-0.428;2022-10-16T02:42:27;12.67;;;3.37;;
20743;SDS011;56303;52.160;-0.428;2022-10-16T02:44:58;11.60;;;3.47;;
20743;SDS011;56303;52.160;-0.428;2022-10-16T02:47:25;9.97;;;3.73;;
20743;SDS011;56303;52.160;-0.428;2022-10-16T02:49:53;11.43;;;3.47;;
20743;SDS011;56303;52.160;-0.428;2022-10-16T02:52:20;14.40;;;3.93;;
20743;SDS011;56303;52.160;-0.428;2022-10-16T02:54:47;15.60;;;4.43;;
20743;SDS011;56303;52.160;-0.428;2022-10-16T02:57:14;12.60;;;2.87;;
20743;SDS011;56303;52.160;-0.428;2022-10-16T02:59:41;9.30;;;2.70;;
20743;SDS011;56303;52.160;-0.428;2022-10-16T03:02:08;10.67;;;3.13;;
20743;SDS011;56303;52.160;-0.428;2022-10-16T03:04:34;11.03;;;3.50;;
20743;SDS011;56303;52.160;-0.428;2022-10-16T03:07:01;7.23;;;2.90;;
20743;SDS011;56303;52.160;-0.428;2022-10-16T03:09:28;15.53;;;4.27;;
20743;SDS011;56303;52.160;-0.428;2022-10-16T03:11:55;11.30;;;3.27;;
20743;SDS011;56303;52.160;-0.428;2022-10-16T03:14:22;10.87;;;2.73;;
20743;SDS011;56303;52.160;-0.428;2022-10-16T03:16:48;13.43;;;3.60;;
20743;SDS011;56303;52.160;-0.428;2022-10-16T03:19:16;10.57;;;2.97;;
20743;SDS011;56303;52.160;-0.428;2022-10-16T03:21:43;13.70;;;2.93;;
20743;SDS011;56303;52.160;-0.428;2022-10-16T03:24:11;14.13;;;4.30;;
20743;SDS011;56303;52.160;-0.428;2022-10-16T03:26:38;14.80;;;3.80;;
20743;SDS011;56303;52.160;-0.428;2022-10-16T03:29:05;12.80;;;3.67;;
20743;SDS011;56303;52.160;-0.428;2022-10-16T03:31:33;8.17;;;2.77;;
20743;SDS011;56303;52.160;-0.428;2022-10-16T03:33:59;12.27;;;3.03;;
20743;SDS011;56303;52.160;-0.428;2022-10-16T03:36:26;11.37;;;2.80;;
20743;SDS011;56303;52.160;-0.428;2022-10-16T03:38:53;12.20;;;3.43;;
20743;SDS011;56303;52.160;-0.428;2022-10-16T03:41:22;10.37;;;3.30;;
20743;SDS011;56303;52.160;-0.428;2022-10-16T03:43:49;11.23;;;2.90;;
20743;SDS011;56303;52.160;-0.428;2022-10-16T03:46:16;10.27;;;3.03;;
20743;SDS011;56303;52.160;-0.428;2022-10-16T03:48:43;14.33;;;3.07;;
20743;SDS011;56303;52.160;-0.428;2022-10-16T03:51:10;11.87;;;3.40;;
20743;SDS011;56303;52.160;-0.428;2022-10-16T03:53:36;12.20;;;3.37;;
20743;SDS011;56303;52.160;-0.428;2022-10-16T03:56:03;11.53;;;3.53;;
20743;SDS011;56303;52.160;-0.428;2022-10-16T03:58:30;8.17;;;2.43;;
20743;SDS011;56303;52.160;-0.428;2022-10-16T04:00:57;8.23;;;2.90;;
20743;SDS011;56303;52.160;-0.428;2022-10-16T04:03:24;11.63;;;3.27;;
20743;SDS011;56303;52.160;-0.428;2022-10-16T04:05:50;12.23;;;3.10;;
20743;SDS011;56303;52.160;-0.428;2022-10-16T04:08:17;13.53;;;3.00;;
20743;SDS011;56303;52.160;-0.428;2022-10-16T04:10:44;11.77;;;3.33;;
20743;SDS011;56303;52.160;-0.428;2022-10-16T04:13:11;12.07;;;2.90;;
20743;SDS011;56303;52.160;-0.428;2022-10-16T04:15:38;8.60;;;2.47;;
20743;SDS011;56303;52.160;-0.428;2022-10-16T04:18:05;11.40;;;2.50;;
20743;SDS011;56303;52.160;-0.428;2022-10-16T04:20:32;11.93;;;2.80;;
20743;SDS011;56303;52.160;-0.428;2022-10-16T04:23:00;14.40;;;3.07;;
20743;SDS011;56303;52.160;-0.428;2022-10-16T04:25:26;17.33;;;3.93;;
20743;SDS011;56303;52.160;-0.428;2022-10-16T04:27:53;10.80;;;2.60;;
20743;SDS011;56303;52.160;-0.428;2022-10-16T04:30:21;7.57;;;2.50;;
20743;SDS011;56303;52.160;-0.428;2022-10-16T04:32:51;11.10;;;3.13;;
20743;SDS011;56303;52.160;-0.428;2022-10-16T04:35:19;8.93;;;2.67;;
20743;SDS011;56303;52.160;-0.428;2022-10-16T04:37:47;9.77;;;2.53;;
20743;SDS011;56303;52.160;-0.428;2022-10-16T04:40:14;10.33;;;2.80;;
20743;SDS011;56303;52.160;-0.428;2022-10-16T04:42:41;10.23;;;2.60;;
20743;SDS011;56303;52.160;-0.428;2022-10-16T04:45:08;9.73;;;2.90;;
20743;SDS011;56303;52.160;-0.428;2022-10-16T04:47:39;13.93;;;3.63;;
20743;SDS011;56303;52.160;-0.428;2022-10-16T04:50:06;9.50;;;3.00;;
20743;SDS011;56303;52.160;-0.428;2022-10-16T04:52:34;9.23;;;3.47;;
20743;SDS011;56303;52.160;-0.428;2022-10-16T04:55:02;12.07;;;3.37;;
20743;SDS011;56303;52.160;-0.428;2022-10-16T04:57:29;11.87;;;3.20;;
20743;SDS011;56303;52.160;-0.428;2022-10-16T04:59:56;9.17;;;2.80;;
20743;SDS011;56303;52.160;-0.428;2022-10-16T05:02:23;9.07;;;2.70;;
20743;SDS011;56303;52.160;-0.428;2022-10-16T05:04:50;7.23;;;2.70;;
20743;SDS011;56303;52.160;-0.428;2022-10-16T05:07:17;7.83;;;2.67;;
20743;SDS011;56303;52.160;-0.428;2022-10-16T05:09:44;12.93;;;2.70;;
20743;SDS011;56303;52.160;-0.428;2022-10-16T05:12:11;9.60;;;3.00;;
20743;SDS011;56303;52.160;-0.428;2022-10-16T05:14:39;10.33;;;2.37;;
20743;SDS011;56303;52.160;-0.428;2022-10-16T05:17:06;8.53;;;2.63;;
20743;SDS011;56303;52.160;-0.428;2022-10-16T05:19:33;9.07;;;2.77;;
20743;SDS011;56303;52.160;-0.428;2022-10-16T05:22:00;10.20;;;2.73;;
20743;SDS011;56303;52.160;-0.428;2022-10-16T05:24:27;11.60;;;3.73;;
20743;SDS011;56303;52.160;-0.428;2022-10-16T05:26:54;9.83;;;2.60;;
20743;SDS011;56303;52.160;-0.428;2022-10-16T05:29:21;12.17;;;2.80;;
20743;SDS011;56303;52.160;-0.428;2022-10-16T05:31:49;11.37;;;2.70;;
20743;SDS011;56303;52.160;-0.428;2022-10-16T05:34:17;9.80;;;2.60;;
20743;SDS011;56303;52.160;-0.428;2022-10-16T05:36:45;10.57;;;3.10;;
20743;SDS011;56303;52.160;-0.428;2022-10-16T05:39:13;11.77;;;3.03;;
20743;SDS011;56303;52.160;-0.428;2022-10-16T05:41:41;12.30;;;2.80;;
20743;SDS011;56303;52.160;-0.428;2022-10-16T05:44:08;10.13;;;2.57;;
20743;SDS011;56303;52.160;-0.428;2022-10-16T05:46:35;10.53;;;2.97;;
20743;SDS011;56303;52.160;-0.428;2022-10-16T05:49:02;9.67;;;2.80;;
20743;SDS011;56303;52.160;-0.428;2022-10-16T05:51:29;7.77;;;2.73;;
20743;SDS011;56303;52.160;-0.428;2022-10-16T05:53:56;9.90;;;2.73;;
20743;SDS011;56303;52.160;-0.428;2022-10-16T05:56:22;12.47;;;3.80;;
20743;SDS011;56303;52.160;-0.428;2022-10-16T05:58:49;10.43;;;3.17;;
20743;SDS011;56303;52.160;-0.428;2022-10-16T06:01:17;10.93;;;3.00;;
20743;SDS011;56303;52.160;-0.428;2022-10-16T06:03:45;7.83;;;2.70;;
20743;SDS011;56303;52.160;-0.428;2022-10-16T06:06:13;7.53;;;3.27;;
20743;SDS011;56303;52.160;-0.428;2022-10-16T06:08:43;6.63;;;2.47;;
20743;SDS011;56303;52.160;-0.428;2022-10-16T06:11:13;9.30;;;2.80;;
20743;SDS011;56303;52.160;-0.428;2022-10-16T06:13:41;13.27;;;3.23;;
20743;SDS011;56303;52.160;-0.428;2022-10-16T06:16:09;8.90;;;2.73;;
20743;SDS011;56303;52.160;-0.428;2022-10-16T06:18:37;7.20;;;2.63;;
20743;SDS011;56303;52.160;-0.428;2022-10-16T06:21:08;8.30;;;2.67;;
20743;SDS011;56303;52.160;-0.428;2022-10-16T06:23:36;8.40;;;2.43;;
20743;SDS011;56303;52.160;-0.428;2022-10-16T06:26:10;12.53;;;3.33;;
20743;SDS011;56303;52.160;-0.428;2022-10-16T06:28:37;10.23;;;3.20;;
20743;SDS011;56303;52.160;-0.428;2022-10-16T06:31:05;7.77;;;2.97;;
20743;SDS011;56303;52.160;-0.428;2022-10-16T06:33:34;10.93;;;2.70;;
20743;SDS011;56303;52.160;-0.428;2022-10-16T06:38:29;12.60;;;3.80;;
20743;SDS011;56303;52.160;-0.428;2022-10-16T06:40:56;10.40;;;2.90;;
20743;SDS011;56303;52.160;-0.428;2022-10-16T06:43:24;8.77;;;2.47;;
20743;SDS011;56303;52.160;-0.428;2022-10-16T06:45:54;12.73;;;2.90;;
20743;SDS011;56303;52.160;-0.428;2022-10-16T06:48:22;9.93;;;2.80;;
20743;SDS011;56303;52.160;-0.428;2022-10-16T06:50:56;10.63;;;2.70;;
20743;SDS011;56303;52.160;-0.428;2022-10-16T06:53:23;9.97;;;2.37;;
20743;SDS011;56303;52.160;-0.428;2022-10-16T06:55:51;13.53;;;2.87;;
20743;SDS011;56303;52.160;-0.428;2022-10-16T06:58:18;11.40;;;3.10;;
20743;SDS011;56303;52.160;-0.428;2022-10-16T07:00:45;11.20;;;3.20;;
20743;SDS011;56303;52.160;-0.428;2022-10-16T07:03:12;8.73;;;2.90;;
20743;SDS011;56303;52.160;-0.428;2022-10-16T07:05:39;7.77;;;2.67;;
20743;SDS011;56303;52.160;-0.428;2022-10-16T07:08:07;8.20;;;3.13;;
20743;SDS011;56303;52.160;-0.428;2022-10-16T07:10:34;8.67;;;3.07;;
20743;SDS011;56303;52.160;-0.428;2022-10-16T07:13:01;12.17;;;2.77;;
20743;SDS011;56303;52.160;-0.428;2022-10-16T07:15:29;9.90;;;2.80;;
20743;SDS011;56303;52.160;-0.428;2022-10-16T07:17:55;13.70;;;4.40;;
20743;SDS011;56303;52.160;-0.428;2022-10-16T07:20:22;7.93;;;2.80;;
20743;SDS011;56303;52.160;-0.428;2022-10-16T07:22:49;8.93;;;2.57;;
20743;SDS011;56303;52.160;-0.428;2022-10-16T07:25:17;9.33;;;2.80;;
20743;SDS011;56303;52.160;-0.428;2022-10-16T07:27:44;12.13;;;3.97;;
20743;SDS011;56303;52.160;-0.428;2022-10-16T07:30:11;10.57;;;4.57;;
20743;SDS011;56303;52.160;-0.428;2022-10-16T07:32:37;10.37;;;3.03;;
20743;SDS011;56303;52.160;-0.428;2022-10-16T07:35:04;7.73;;;2.63;;
20743;SDS011;56303;52.160;-0.428;2022-10-16T07:37:31;9.30;;;2.63;;
20743;SDS011;56303;52.160;-0.428;2022-10-16T07:39:58;10.53;;;3.10;;
20743;SDS011;56303;52.160;-0.428;2022-10-16T07:42:26;10.57;;;2.60;;
20743;SDS011;56303;52.160;-0.428;2022-10-16T07:44:53;10.57;;;2.23;;
20743;SDS011;56303;52.160;-0.428;2022-10-16T07:47:20;10.07;;;2.90;;
20743;SDS011;56303;52.160;-0.428;2022-10-16T07:49:47;12.20;;;2.67;;
20743;SDS011;56303;52.160;-0.428;2022-10-16T07:52:13;13.33;;;3.00;;
20743;SDS011;56303;52.160;-0.428;2022-10-16T07:54:40;10.07;;;2.53;;
20743;SDS011;56303;52.160;-0.428;2022-10-16T07:57:07;10.70;;;2.90;;
20743;SDS011;56303;52.160;-0.428;2022-10-16T07:59:34;12.90;;;2.70;;
20743;SDS011;56303;52.160;-0.428;2022-10-16T08:02:00;6.63;;;2.37;;
20743;SDS011;56303;52.160;-0.428;2022-10-16T08:04:27;10.40;;;3.37;;
20743;SDS011;56303;52.160;-0.428;2022-10-16T08:06:54;8.17;;;2.47;;
20743;SDS011;56303;52.160;-0.428;2022-10-16T08:09:21;9.90;;;3.10;;
20743;SDS011;56303;52.160;-0.428;2022-10-16T08:11:48;12.47;;;3.57;;
20743;SDS011;56303;52.160;-0.428;2022-10-16T08:14:15;11.90;;;3.37;;
20743;SDS011;56303;52.160;-0.428;2022-10-16T08:16:41;7.20;;;2.00;;
20743;SDS011;56303;52.160;-0.428;2022-10-16T08:19:08;11.70;;;3.73;;
20743;SDS011;56303;52.160;-0.428;2022-10-16T08:21:35;8.10;;;3.03;;
20743;SDS011;56303;52.160;-0.428;2022-10-16T08:24:03;10.90;;;2.60;;
20743;SDS011;56303;52.160;-0.428;2022-10-16T08:26:30;6.33;;;2.80;;
20743;SDS011;56303;52.160;-0.428;2022-10-16T08:28:57;10.97;;;3.13;;
20743;SDS011;56303;52.160;-0.428;2022-10-16T08:31:24;10.60;;;2.50;;
20743;SDS011;56303;52.160;-0.428;2022-10-16T08:33:52;11.53;;;2.57;;
20743;SDS011;56303;52.160;-0.428;2022-10-16T08:36:19;12.40;;;2.83;;
20743;SDS011;56303;52.160;-0.428;2022-10-16T08:38:49;9.33;;;2.60;;
20743;SDS011;56303;52.160;-0.428;2022-10-16T08:41:22;7.43;;;2.43;;
20743;SDS011;56303;52.160;-0.428;2022-10-16T08:44:18;9.43;;;2.73;;
20743;SDS011;56303;52.160;-0.428;2022-10-16T08:50:24;6.90;;;2.53;;
20743;SDS011;56303;52.160;-0.428;2022-10-16T08:52:56;6.07;;;2.43;;
20743;SDS011;56303;52.160;-0.428;2022-10-16T08:55:42;10.70;;;2.63;;
20743;SDS011;56303;52.160;-0.428;2022-10-16T08:58:18;10.80;;;2.57;;
20743;SDS011;56303;52.160;-0.428;2022-10-16T09:00:59;13.50;;;2.80;;
20743;SDS011;56303;52.160;-0.428;2022-10-16T09:46:30;9.07;;;2.60;;
20743;SDS011;56303;52.160;-0.428;2022-10-16T09:49:04;7.90;;;2.30;;
20743;SDS011;56303;52.160;-0.428;2022-10-16T09:51:44;7.73;;;2.17;;
20743;SDS011;56303;52.160;-0.428;2022-10-16T09:54:15;8.10;;;2.20;;
20743;SDS011;56303;52.160;-0.428;2022-10-16T09:56:43;8.17;;;2.20;;
20743;SDS011;56303;52.160;-0.428;2022-10-16T09:59:15;7.20;;;2.77;;
20743;SDS011;56303;52.160;-0.428;2022-10-16T10:01:50;5.40;;;2.10;;
20743;SDS011;56303;52.160;-0.428;2022-10-16T10:04:19;7.00;;;2.23;;
20743;SDS011;56303;52.160;-0.428;2022-10-16T10:06:49;4.27;;;1.83;;
20743;SDS011;56303;52.160;-0.428;2022-10-16T10:09:24;6.37;;;1.83;;
20743;SDS011;56303;52.160;-0.428;2022-10-16T10:11:59;6.53;;;2.03;;
20743;SDS011;56303;52.160;-0.428;2022-10-16T10:14:43;5.17;;;2.00;;
20743;SDS011;56303;52.160;-0.428;2022-10-16T10:17:24;7.30;;;2.50;;
20743;SDS011;56303;52.160;-0.428;2022-10-16T10:19:57;7.97;;;1.87;;
20743;SDS011;56303;52.160;-0.428;2022-10-16T10:22:43;6.97;;;2.17;;
20743;SDS011;56303;52.160;-0.428;2022-10-16T10:25:14;7.17;;;2.20;;
20743;SDS011;56303;52.160;-0.428;2022-10-16T10:30:58;4.17;;;1.80;;
20743;SDS011;56303;52.160;-0.428;2022-10-16T10:33:46;6.10;;;1.90;;
20743;SDS011;56303;52.160;-0.428;2022-10-16T10:36:27;4.00;;;1.33;;
20743;SDS011;56303;52.160;-0.428;2022-10-16T10:39:15;5.80;;;1.70;;
20743;SDS011;56303;52.160;-0.428;2022-10-16T10:58:22;4.23;;;1.60;;
20743;SDS011;56303;52.160;-0.428;2022-10-16T11:06:29;4.20;;;1.73;;
20743;SDS011;56303;52.160;-0.428;2022-10-16T11:11:58;5.07;;;1.43;;
20743;SDS011;56303;52.160;-0.428;2022-10-16T11:14:43;7.30;;;1.70;;
20743;SDS011;56303;52.160;-0.428;2022-10-16T11:17:23;3.80;;;1.47;;
20743;SDS011;56303;52.160;-0.428;2022-10-16T11:19:59;4.80;;;1.90;;
20743;SDS011;56303;52.160;-0.428;2022-10-16T11:25:27;4.83;;;1.87;;
20743;SDS011;56303;52.160;-0.428;2022-10-16T11:30:25;4.93;;;1.50;;
20743;SDS011;56303;52.160;-0.428;2022-10-16T11:38:52;5.60;;;1.60;;
20743;SDS011;56303;52.160;-0.428;2022-10-16T11:44:10;5.27;;;1.70;;
20743;SDS011;56303;52.160;-0.428;2022-10-16T11:50:38;8.57;;;1.50;;
20743;SDS011;56303;52.160;-0.428;2022-10-16T11:55:50;5.83;;;2.07;;
20743;SDS011;56303;52.160;-0.428;2022-10-16T11:58:31;7.10;;;1.80;;
20743;SDS011;56303;52.160;-0.428;2022-10-16T12:01:20;4.33;;;1.57;;
20743;SDS011;56303;52.160;-0.428;2022-10-16T12:11:55;4.27;;;2.13;;
20743;SDS011;56303;52.160;-0.428;2022-10-16T12:17:34;7.30;;;2.07;;
20743;SDS011;56303;52.160;-0.428;2022-10-16T12:22:57;3.40;;;1.40;;
20743;SDS011;56303;52.160;-0.428;2022-10-16T12:25:37;5.07;;;1.90;;
20743;SDS011;56303;52.160;-0.428;2022-10-16T12:30:39;5.97;;;2.00;;
20743;SDS011;56303;52.160;-0.428;2022-10-16T12:36:04;3.03;;;1.40;;
20743;SDS011;56303;52.160;-0.428;2022-10-16T12:38:47;6.13;;;2.30;;
20743;SDS011;56303;52.160;-0.428;2022-10-16T12:43:55;5.07;;;2.23;;
20743;SDS011;56303;52.160;-0.428;2022-10-16T12:51:38;4.13;;;1.83;;
20743;SDS011;56303;52.160;-0.428;2022-10-16T12:59:38;5.07;;;1.70;;
20743;SDS011;56303;52.160;-0.428;2022-10-16T13:08:13;3.93;;;2.10;;
20743;SDS011;56303;52.160;-0.428;2022-10-16T13:11:14;5.20;;;2.07;;
20743;SDS011;56303;52.160;-0.428;2022-10-16T13:13:53;3.57;;;1.70;;
20743;SDS011;56303;52.160;-0.428;2022-10-16T13:17:36;5.60;;;2.23;;
20743;SDS011;56303;52.160;-0.428;2022-10-16T13:25:31;6.53;;;2.00;;
20743;SDS011;56303;52.160;-0.428;2022-10-16T13:28:09;6.93;;;2.13;;
20743;SDS011;56303;52.160;-0.428;2022-10-16T13:31:12;5.73;;;2.20;;
20743;SDS011;56303;52.160;-0.428;2022-10-16T13:33:38;5.33;;;2.10;;
20743;SDS011;56303;52.160;-0.428;2022-10-16T13:36:06;5.90;;;2.57;;
20743;SDS011;56303;52.160;-0.428;2022-10-16T13:38:44;4.07;;;2.17;;
20743;SDS011;56303;52.160;-0.428;2022-10-16T13:41:15;6.27;;;2.60;;
20743;SDS011;56303;52.160;-0.428;2022-10-16T13:46:19;7.90;;;2.43;;
20743;SDS011;56303;52.160;-0.428;2022-10-16T13:49:03;9.10;;;3.20;;
20743;SDS011;56303;52.160;-0.428;2022-10-16T13:51:32;4.30;;;2.23;;
20743;SDS011;56303;52.160;-0.428;2022-10-16T13:53:59;6.10;;;2.40;;
20743;SDS011;56303;52.160;-0.428;2022-10-16T13:56:27;8.53;;;2.37;;
20743;SDS011;56303;52.160;-0.428;2022-10-16T14:01:35;6.87;;;2.53;;
20743;SDS011;56303;52.160;-0.428;2022-10-16T14:04:08;6.23;;;2.63;;
20743;SDS011;56303;52.160;-0.428;2022-10-16T14:06:40;5.83;;;2.23;;
20743;SDS011;56303;52.160;-0.428;2022-10-16T14:09:20;6.37;;;2.40;;
20743;SDS011;56303;52.160;-0.428;2022-10-16T14:11:49;5.57;;;2.37;;
20743;SDS011;56303;52.160;-0.428;2022-10-16T14:14:22;9.70;;;2.70;;
20743;SDS011;56303;52.160;-0.428;2022-10-16T14:16:49;8.93;;;2.63;;
20743;SDS011;56303;52.160;-0.428;2022-10-16T14:21:47;8.00;;;2.73;;
20743;SDS011;56303;52.160;-0.428;2022-10-16T14:26:57;9.33;;;3.43;;
20743;SDS011;56303;52.160;-0.428;2022-10-16T14:29:26;8.60;;;3.10;;
20743;SDS011;56303;52.160;-0.428;2022-10-16T14:31:55;6.37;;;2.70;;
20743;SDS011;56303;52.160;-0.428;2022-10-16T14:34:24;7.87;;;2.83;;
20743;SDS011;56303;52.160;-0.428;2022-10-16T14:37:05;8.80;;;2.90;;
20743;SDS011;56303;52.160;-0.428;2022-10-16T14:39:41;7.63;;;2.70;;
20743;SDS011;56303;52.160;-0.428;2022-10-16T14:42:14;8.57;;;3.00;;
20743;SDS011;56303;52.160;-0.428;2022-10-16T14:44:45;6.00;;;2.37;;
20743;SDS011;56303;52.160;-0.428;2022-10-16T14:47:13;7.63;;;2.80;;
20743;SDS011;56303;52.160;-0.428;2022-10-16T14:49:48;7.80;;;3.13;;
20743;SDS011;56303;52.160;-0.428;2022-10-16T14:52:15;10.67;;;2.83;;
20743;SDS011;56303;52.160;-0.428;2022-10-16T14:54:43;10.93;;;3.00;;
20743;SDS011;56303;52.160;-0.428;2022-10-16T14:57:17;11.27;;;3.63;;
20743;SDS011;56303;52.160;-0.428;2022-10-16T14:59:48;10.40;;;3.40;;
20743;SDS011;56303;52.160;-0.428;2022-10-16T15:04:51;8.47;;;2.80;;
20743;SDS011;56303;52.160;-0.428;2022-10-16T15:07:18;11.40;;;3.00;;
20743;SDS011;56303;52.160;-0.428;2022-10-16T15:09:45;9.17;;;3.10;;
20743;SDS011;56303;52.160;-0.428;2022-10-16T15:12:15;10.47;;;2.97;;
20743;SDS011;56303;52.160;-0.428;2022-10-16T15:14:42;9.80;;;3.17;;
20743;SDS011;56303;52.160;-0.428;2022-10-16T15:17:10;9.90;;;3.00;;
20743;SDS011;56303;52.160;-0.428;2022-10-16T15:19:37;8.87;;;2.80;;
20743;SDS011;56303;52.160;-0.428;2022-10-16T15:22:04;7.73;;;2.97;;
20743;SDS011;56303;52.160;-0.428;2022-10-16T15:24:31;9.87;;;3.40;;
20743;SDS011;56303;52.160;-0.428;2022-10-16T15:26:57;10.40;;;3.43;;
20743;SDS011;56303;52.160;-0.428;2022-10-16T15:29:24;7.57;;;3.37;;
20743;SDS011;56303;52.160;-0.428;2022-10-16T15:31:51;9.37;;;3.93;;
20743;SDS011;56303;52.160;-0.428;2022-10-16T15:34:18;9.80;;;2.70;;
20743;SDS011;56303;52.160;-0.428;2022-10-16T15:36:45;10.20;;;3.57;;
20743;SDS011;56303;52.160;-0.428;2022-10-16T15:39:14;10.50;;;3.60;;
20743;SDS011;56303;52.160;-0.428;2022-10-16T15:41:42;10.10;;;3.03;;
20743;SDS011;56303;52.160;-0.428;2022-10-16T15:44:10;11.00;;;2.97;;
20743;SDS011;56303;52.160;-0.428;2022-10-16T15:46:37;9.60;;;2.90;;
20743;SDS011;56303;52.160;-0.428;2022-10-16T15:49:04;14.03;;;3.77;;
20743;SDS011;56303;52.160;-0.428;2022-10-16T15:51:31;9.57;;;3.10;;
20743;SDS011;56303;52.160;-0.428;2022-10-16T15:53:59;8.37;;;3.40;;
20743;SDS011;56303;52.160;-0.428;2022-10-16T15:56:28;11.43;;;3.27;;
20743;SDS011;56303;52.160;-0.428;2022-10-16T15:58:55;10.70;;;3.50;;
20743;SDS011;56303;52.160;-0.428;2022-10-16T16:01:24;13.03;;;3.73;;
20743;SDS011;56303;52.160;-0.428;2022-10-16T16:03:52;11.07;;;3.60;;
20743;SDS011;56303;52.160;-0.428;2022-10-16T16:06:20;12.73;;;3.20;;
20743;SDS011;56303;52.160;-0.428;2022-10-16T16:08:47;9.67;;;3.63;;
20743;SDS011;56303;52.160;-0.428;2022-10-16T16:11:14;9.63;;;3.73;;
20743;SDS011;56303;52.160;-0.428;2022-10-16T16:13:44;12.43;;;3.37;;
20743;SDS011;56303;52.160;-0.428;2022-10-16T16:16:11;9.03;;;3.33;;
20743;SDS011;56303;52.160;-0.428;2022-10-16T16:18:40;10.00;;;3.93;;
20743;SDS011;56303;52.160;-0.428;2022-10-16T16:21:09;13.43;;;3.70;;
20743;SDS011;56303;52.160;-0.428;2022-10-16T16:23:37;14.53;;;6.23;;
20743;SDS011;56303;52.160;-0.428;2022-10-16T16:28:47;13.43;;;4.33;;
20743;SDS011;56303;52.160;-0.428;2022-10-16T16:31:17;12.63;;;4.40;;
20743;SDS011;56303;52.160;-0.428;2022-10-16T16:33:43;13.47;;;3.90;;
20743;SDS011;56303;52.160;-0.428;2022-10-16T16:36:11;14.93;;;5.60;;
20743;SDS011;56303;52.160;-0.428;2022-10-16T16:38:41;13.10;;;4.20;;
20743;SDS011;56303;52.160;-0.428;2022-10-16T16:43:39;14.50;;;6.57;;
20743;SDS011;56303;52.160;-0.428;2022-10-16T16:46:07;24.30;;;12.27;;
20743;SDS011;56303;52.160;-0.428;2022-10-16T16:48:34;15.43;;;5.27;;
20743;SDS011;56303;52.160;-0.428;2022-10-16T16:51:04;12.87;;;4.43;;
20743;SDS011;56303;52.160;-0.428;2022-10-16T16:53:42;20.10;;;10.90;;
20743;SDS011;56303;52.160;-0.428;2022-10-16T16:56:10;17.10;;;8.63;;
20743;SDS011;56303;52.160;-0.428;2022-10-16T16:58:37;31.37;;;16.90;;
20743;SDS011;56303;52.160;-0.428;2022-10-16T17:01:04;33.00;;;20.07;;
20743;SDS011;56303;52.160;-0.428;2022-10-16T17:03:45;20.13;;;11.23;;
20743;SDS011;56303;52.160;-0.428;2022-10-16T17:06:16;15.00;;;7.47;;
20743;SDS011;56303;52.160;-0.428;2022-10-16T17:08:46;17.00;;;7.23;;
20743;SDS011;56303;52.160;-0.428;2022-10-16T17:11:15;13.60;;;5.47;;
20743;SDS011;56303;52.160;-0.428;2022-10-16T17:13:47;15.67;;;5.17;;
20743;SDS011;56303;52.160;-0.428;2022-10-16T17:16:21;12.20;;;5.50;;
20743;SDS011;56303;52.160;-0.428;2022-10-16T17:18:53;14.87;;;5.70;;
20743;SDS011;56303;52.160;-0.428;2022-10-16T17:21:20;12.17;;;4.53;;
20743;SDS011;56303;52.160;-0.428;2022-10-16T17:23:50;14.27;;;4.90;;
20743;SDS011;56303;52.160;-0.428;2022-10-16T17:26:17;12.03;;;4.40;;
20743;SDS011;56303;52.160;-0.428;2022-10-16T17:28:45;9.80;;;4.70;;
20743;SDS011;56303;52.160;-0.428;2022-10-16T17:31:12;13.30;;;4.53;;
20743;SDS011;56303;52.160;-0.428;2022-10-16T17:33:45;9.90;;;3.90;;
20743;SDS011;56303;52.160;-0.428;2022-10-16T17:36:12;11.87;;;3.73;;
20743;SDS011;56303;52.160;-0.428;2022-10-16T17:38:40;12.57;;;4.00;;
20743;SDS011;56303;52.160;-0.428;2022-10-16T17:43:45;12.37;;;4.27;;
20743;SDS011;56303;52.160;-0.428;2022-10-16T17:46:13;13.33;;;4.03;;
20743;SDS011;56303;52.160;-0.428;2022-10-16T17:48:43;12.07;;;4.40;;